sensor_id;sensor_type;location;lat;lon;timestamp;temperature;humidity
78731;SHT31;68055;51.978;5.658;2023-12-20T00:00:12;9.6;74.1
78731;SHT31;68055;51.978;5.658;2023-12-20T00:02:40;9.6;74.1
78731;SHT31;68055;51.978;5.658;2023-12-20T00:05:13;9.6;74.3
78731;SHT31;68055;51.978;5.658;2023-12-20T00:07:42;9.6;74.5
78731;SHT31;68055;51.978;5.658;2023-12-20T00:10:11;9.6;74.4
78731;SHT31;68055;51.978;5.658;2023-12-20T00:12:39;9.5;74.5
78731;SHT31;68055;51.978;5.658;2023-12-20T00:15:09;9.5;74.1
78731;SHT31;68055;51.978;5.658;2023-12-20T00:17:38;9.5;74.2
78731;SHT31;68055;51.978;5.658;2023-12-20T00:20:07;9.5;74.1
78731;SHT31;68055;51.978;5.658;2023-12-20T00:22:35;9.5;74.2
78731;SHT31;68055;51.978;5.658;2023-12-20T00:25:04;9.5;74.2
78731;SHT31;68055;51.978;5.658;2023-12-20T00:27:33;9.4;74.1
78731;SHT31;68055;51.978;5.658;2023-12-20T00:30:02;9.4;74.1
78731;SHT31;68055;51.978;5.658;2023-12-20T00:32:31;9.4;73.8
78731;SHT31;68055;51.978;5.658;2023-12-20T00:34:59;9.4;73.8
78731;SHT31;68055;51.978;5.658;2023-12-20T00:37:27;9.4;73.8
78731;SHT31;68055;51.978;5.658;2023-12-20T00:39:56;9.4;73.9
78731;SHT31;68055;51.978;5.658;2023-12-20T00:42:25;9.3;73.9
78731;SHT31;68055;51.978;5.658;2023-12-20T00:44:53;9.3;73.8
78731;SHT31;68055;51.978;5.658;2023-12-20T00:47:22;9.3;74.0
78731;SHT31;68055;51.978;5.658;2023-12-20T00:49:50;9.3;74.1
78731;SHT31;68055;51.978;5.658;2023-12-20T00:52:19;9.3;73.8
78731;SHT31;68055;51.978;5.658;2023-12-20T00:54:49;9.3;73.7
78731;SHT31;68055;51.978;5.658;2023-12-20T00:57:18;9.3;73.6
78731;SHT31;68055;51.978;5.658;2023-12-20T00:59:47;9.3;73.5
78731;SHT31;68055;51.978;5.658;2023-12-20T01:02:15;9.2;73.2
78731;SHT31;68055;51.978;5.658;2023-12-20T01:04:44;9.2;73.4
78731;SHT31;68055;51.978;5.658;2023-12-20T01:07:13;9.2;73.4
78731;SHT31;68055;51.978;5.658;2023-12-20T01:09:43;9.2;73.4
78731;SHT31;68055;51.978;5.658;2023-12-20T01:12:12;9.2;73.2
78731;SHT31;68055;51.978;5.658;2023-12-20T01:14:40;9.1;73.4
78731;SHT31;68055;51.978;5.658;2023-12-20T01:17:09;9.1;73.3
78731;SHT31;68055;51.978;5.658;2023-12-20T01:19:39;9.1;73.2
78731;SHT31;68055;51.978;5.658;2023-12-20T01:22:08;9.1;73.4
78731;SHT31;68055;51.978;5.658;2023-12-20T01:24:36;9.1;73.4
78731;SHT31;68055;51.978;5.658;2023-12-20T01:27:06;9.0;73.2
78731;SHT31;68055;51.978;5.658;2023-12-20T01:29:34;9.0;73.4
78731;SHT31;68055;51.978;5.658;2023-12-20T01:32:03;9.0;73.2
78731;SHT31;68055;51.978;5.658;2023-12-20T01:34:31;9.0;73.2
78731;SHT31;68055;51.978;5.658;2023-12-20T01:37:00;9.0;73.3
78731;SHT31;68055;51.978;5.658;2023-12-20T01:39:31;9.0;73.2
78731;SHT31;68055;51.978;5.658;2023-12-20T01:41:59;8.9;73.3
78731;SHT31;68055;51.978;5.658;2023-12-20T01:44:28;8.9;73.2
78731;SHT31;68055;51.978;5.658;2023-12-20T01:46:57;8.9;73.3
78731;SHT31;68055;51.978;5.658;2023-12-20T01:49:26;8.9;73.7
78731;SHT31;68055;51.978;5.658;2023-12-20T01:51:55;8.9;73.5
78731;SHT31;68055;51.978;5.658;2023-12-20T01:54:27;8.8;73.7
78731;SHT31;68055;51.978;5.658;2023-12-20T01:56:57;8.8;73.6
78731;SHT31;68055;51.978;5.658;2023-12-20T01:59:26;8.8;73.6
78731;SHT31;68055;51.978;5.658;2023-12-20T02:01:55;8.8;73.8
78731;SHT31;68055;51.978;5.658;2023-12-20T02:04:25;8.8;73.7
78731;SHT31;68055;51.978;5.658;2023-12-20T02:06:58;8.8;74.1
78731;SHT31;68055;51.978;5.658;2023-12-20T02:09:27;8.8;74.3
78731;SHT31;68055;51.978;5.658;2023-12-20T02:11:57;8.8;74.3
78731;SHT31;68055;51.978;5.658;2023-12-20T02:14:26;8.8;74.7
78731;SHT31;68055;51.978;5.658;2023-12-20T02:16:54;8.9;74.1
78731;SHT31;68055;51.978;5.658;2023-12-20T02:19:23;8.9;74.1
78731;SHT31;68055;51.978;5.658;2023-12-20T02:22:08;8.9;74.2
78731;SHT31;68055;51.978;5.658;2023-12-20T02:24:37;8.9;74.2
78731;SHT31;68055;51.978;5.658;2023-12-20T02:27:07;8.9;74.3
78731;SHT31;68055;51.978;5.658;2023-12-20T02:29:36;8.9;74.3
78731;SHT31;68055;51.978;5.658;2023-12-20T02:32:05;9.0;74.2
78731;SHT31;68055;51.978;5.658;2023-12-20T02:34:34;9.0;74.2
78731;SHT31;68055;51.978;5.658;2023-12-20T02:37:03;9.0;73.9
78731;SHT31;68055;51.978;5.658;2023-12-20T02:39:31;9.0;73.9
78731;SHT31;68055;51.978;5.658;2023-12-20T02:42:00;9.1;74.0
78731;SHT31;68055;51.978;5.658;2023-12-20T02:44:28;9.1;74.0
78731;SHT31;68055;51.978;5.658;2023-12-20T02:46:57;9.1;74.1
78731;SHT31;68055;51.978;5.658;2023-12-20T02:49:25;9.1;74.2
78731;SHT31;68055;51.978;5.658;2023-12-20T02:51:54;9.1;73.9
78731;SHT31;68055;51.978;5.658;2023-12-20T02:54:23;9.1;73.7
78731;SHT31;68055;51.978;5.658;2023-12-20T02:56:53;9.1;73.3
78731;SHT31;68055;51.978;5.658;2023-12-20T02:59:21;9.1;72.9
78731;SHT31;68055;51.978;5.658;2023-12-20T03:01:50;9.1;73.0
78731;SHT31;68055;51.978;5.658;2023-12-20T03:04:18;9.1;73.1
78731;SHT31;68055;51.978;5.658;2023-12-20T03:06:47;9.1;73.2
78731;SHT31;68055;51.978;5.658;2023-12-20T03:09:16;9.1;73.0
78731;SHT31;68055;51.978;5.658;2023-12-20T03:11:44;9.1;73.1
78731;SHT31;68055;51.978;5.658;2023-12-20T03:14:13;9.1;73.0
78731;SHT31;68055;51.978;5.658;2023-12-20T03:16:41;9.1;73.1
78731;SHT31;68055;51.978;5.658;2023-12-20T03:19:12;9.1;73.3
78731;SHT31;68055;51.978;5.658;2023-12-20T03:21:40;9.1;73.4
78731;SHT31;68055;51.978;5.658;2023-12-20T03:24:09;9.1;73.5
78731;SHT31;68055;51.978;5.658;2023-12-20T03:26:37;9.1;73.4
78731;SHT31;68055;51.978;5.658;2023-12-20T03:29:06;9.1;73.3
78731;SHT31;68055;51.978;5.658;2023-12-20T03:31:35;9.1;73.3
78731;SHT31;68055;51.978;5.658;2023-12-20T03:34:03;9.1;73.4
78731;SHT31;68055;51.978;5.658;2023-12-20T03:36:32;9.1;73.6
78731;SHT31;68055;51.978;5.658;2023-12-20T03:39:00;9.1;73.5
78731;SHT31;68055;51.978;5.658;2023-12-20T03:41:29;9.1;73.3
78731;SHT31;68055;51.978;5.658;2023-12-20T03:43:57;9.1;73.8
78731;SHT31;68055;51.978;5.658;2023-12-20T03:46:26;9.1;73.7
78731;SHT31;68055;51.978;5.658;2023-12-20T03:48:55;9.1;73.4
78731;SHT31;68055;51.978;5.658;2023-12-20T03:51:23;9.1;73.1
78731;SHT31;68055;51.978;5.658;2023-12-20T03:53:52;9.1;73.1
78731;SHT31;68055;51.978;5.658;2023-12-20T03:56:20;9.1;73.5
78731;SHT31;68055;51.978;5.658;2023-12-20T03:58:49;9.1;73.4
78731;SHT31;68055;51.978;5.658;2023-12-20T04:01:20;9.1;73.5
78731;SHT31;68055;51.978;5.658;2023-12-20T04:03:48;9.1;73.1
78731;SHT31;68055;51.978;5.658;2023-12-20T04:06:18;9.1;73.0
78731;SHT31;68055;51.978;5.658;2023-12-20T04:08:47;9.1;73.1
78731;SHT31;68055;51.978;5.658;2023-12-20T04:11:16;9.1;73.3
78731;SHT31;68055;51.978;5.658;2023-12-20T04:13:44;9.1;73.4
78731;SHT31;68055;51.978;5.658;2023-12-20T04:16:13;9.1;73.4
78731;SHT31;68055;51.978;5.658;2023-12-20T04:18:41;9.1;73.4
78731;SHT31;68055;51.978;5.658;2023-12-20T04:21:10;9.1;73.4
78731;SHT31;68055;51.978;5.658;2023-12-20T04:23:39;9.1;73.3
78731;SHT31;68055;51.978;5.658;2023-12-20T04:26:07;9.2;73.5
78731;SHT31;68055;51.978;5.658;2023-12-20T04:28:36;9.2;73.5
78731;SHT31;68055;51.978;5.658;2023-12-20T04:31:04;9.2;73.7
78731;SHT31;68055;51.978;5.658;2023-12-20T04:33:33;9.2;73.8
78731;SHT31;68055;51.978;5.658;2023-12-20T04:36:01;9.2;73.9
78731;SHT31;68055;51.978;5.658;2023-12-20T04:38:31;9.2;73.7
78731;SHT31;68055;51.978;5.658;2023-12-20T04:40:59;9.3;73.7
78731;SHT31;68055;51.978;5.658;2023-12-20T04:43:28;9.3;73.7
78731;SHT31;68055;51.978;5.658;2023-12-20T04:45:57;9.3;73.6
78731;SHT31;68055;51.978;5.658;2023-12-20T04:48:25;9.3;73.5
78731;SHT31;68055;51.978;5.658;2023-12-20T04:50:54;9.4;73.4
78731;SHT31;68055;51.978;5.658;2023-12-20T04:53:22;9.4;73.3
78731;SHT31;68055;51.978;5.658;2023-12-20T04:55:51;9.4;73.3
78731;SHT31;68055;51.978;5.658;2023-12-20T04:58:20;9.4;73.4
78731;SHT31;68055;51.978;5.658;2023-12-20T05:00:48;9.5;73.3
78731;SHT31;68055;51.978;5.658;2023-12-20T05:03:17;9.5;73.1
78731;SHT31;68055;51.978;5.658;2023-12-20T05:05:45;9.5;72.6
78731;SHT31;68055;51.978;5.658;2023-12-20T05:08:14;9.5;72.6
78731;SHT31;68055;51.978;5.658;2023-12-20T05:10:43;9.5;72.6
78731;SHT31;68055;51.978;5.658;2023-12-20T05:13:11;9.5;72.5
78731;SHT31;68055;51.978;5.658;2023-12-20T05:15:40;9.6;72.5
78731;SHT31;68055;51.978;5.658;2023-12-20T05:18:09;9.6;72.4
78731;SHT31;68055;51.978;5.658;2023-12-20T05:20:37;9.6;72.5
78731;SHT31;68055;51.978;5.658;2023-12-20T05:23:06;9.6;72.5
78731;SHT31;68055;51.978;5.658;2023-12-20T05:25:35;9.6;72.2
78731;SHT31;68055;51.978;5.658;2023-12-20T05:28:04;9.6;72.3
78731;SHT31;68055;51.978;5.658;2023-12-20T05:30:32;9.7;72.2
78731;SHT31;68055;51.978;5.658;2023-12-20T05:33:01;9.7;72.0
78731;SHT31;68055;51.978;5.658;2023-12-20T05:35:29;9.7;72.2
78731;SHT31;68055;51.978;5.658;2023-12-20T05:37:58;9.7;72.2
78731;SHT31;68055;51.978;5.658;2023-12-20T05:40:26;9.8;71.9
78731;SHT31;68055;51.978;5.658;2023-12-20T05:42:55;9.8;71.9
78731;SHT31;68055;51.978;5.658;2023-12-20T05:45:23;9.8;71.8
78731;SHT31;68055;51.978;5.658;2023-12-20T05:47:52;9.8;71.7
78731;SHT31;68055;51.978;5.658;2023-12-20T05:50:20;9.8;71.6
78731;SHT31;68055;51.978;5.658;2023-12-20T05:52:49;9.9;71.4
78731;SHT31;68055;51.978;5.658;2023-12-20T05:55:17;9.9;71.7
78731;SHT31;68055;51.978;5.658;2023-12-20T05:57:46;9.9;71.6
78731;SHT31;68055;51.978;5.658;2023-12-20T06:00:16;9.9;71.5
78731;SHT31;68055;51.978;5.658;2023-12-20T06:02:45;10.0;71.2
78731;SHT31;68055;51.978;5.658;2023-12-20T06:05:13;10.0;71.1
78731;SHT31;68055;51.978;5.658;2023-12-20T06:07:42;10.0;71.1
78731;SHT31;68055;51.978;5.658;2023-12-20T06:10:11;10.0;71.1
78731;SHT31;68055;51.978;5.658;2023-12-20T06:12:40;10.0;70.9
78731;SHT31;68055;51.978;5.658;2023-12-20T06:15:09;10.1;70.8
78731;SHT31;68055;51.978;5.658;2023-12-20T06:17:38;10.1;70.4
78731;SHT31;68055;51.978;5.658;2023-12-20T06:20:07;10.1;70.5
78731;SHT31;68055;51.978;5.658;2023-12-20T06:22:36;10.1;70.4
78731;SHT31;68055;51.978;5.658;2023-12-20T06:25:05;10.1;70.2
78731;SHT31;68055;51.978;5.658;2023-12-20T06:27:34;10.1;70.1
78731;SHT31;68055;51.978;5.658;2023-12-20T06:30:03;10.1;70.0
78731;SHT31;68055;51.978;5.658;2023-12-20T06:32:32;10.1;70.2
78731;SHT31;68055;51.978;5.658;2023-12-20T06:35:01;10.1;70.2
78731;SHT31;68055;51.978;5.658;2023-12-20T06:37:31;10.1;69.9
78731;SHT31;68055;51.978;5.658;2023-12-20T06:39:59;10.1;70.0
78731;SHT31;68055;51.978;5.658;2023-12-20T06:42:28;10.1;69.9
78731;SHT31;68055;51.978;5.658;2023-12-20T06:44:57;10.1;70.1
78731;SHT31;68055;51.978;5.658;2023-12-20T06:47:25;10.2;69.8
78731;SHT31;68055;51.978;5.658;2023-12-20T06:49:54;10.2;69.7
78731;SHT31;68055;51.978;5.658;2023-12-20T06:52:23;10.2;69.8
78731;SHT31;68055;51.978;5.658;2023-12-20T06:54:51;10.2;69.8
78731;SHT31;68055;51.978;5.658;2023-12-20T06:57:20;10.2;69.9
78731;SHT31;68055;51.978;5.658;2023-12-20T06:59:48;10.2;69.9
78731;SHT31;68055;51.978;5.658;2023-12-20T07:02:18;10.2;69.8
78731;SHT31;68055;51.978;5.658;2023-12-20T07:04:50;10.2;69.7
78731;SHT31;68055;51.978;5.658;2023-12-20T07:07:19;10.2;69.7
78731;SHT31;68055;51.978;5.658;2023-12-20T07:09:50;10.2;69.9
78731;SHT31;68055;51.978;5.658;2023-12-20T07:12:18;10.2;69.8
78731;SHT31;68055;51.978;5.658;2023-12-20T07:14:47;10.2;69.9
78731;SHT31;68055;51.978;5.658;2023-12-20T07:17:16;10.2;69.9
78731;SHT31;68055;51.978;5.658;2023-12-20T07:19:44;10.2;69.7
78731;SHT31;68055;51.978;5.658;2023-12-20T07:22:13;10.2;70.0
78731;SHT31;68055;51.978;5.658;2023-12-20T07:24:41;10.2;69.9
78731;SHT31;68055;51.978;5.658;2023-12-20T07:27:10;10.2;69.7
78731;SHT31;68055;51.978;5.658;2023-12-20T07:29:41;10.2;70.0
78731;SHT31;68055;51.978;5.658;2023-12-20T07:32:11;10.2;69.7
78731;SHT31;68055;51.978;5.658;2023-12-20T07:34:40;10.3;69.7
78731;SHT31;68055;51.978;5.658;2023-12-20T07:37:08;10.3;69.7
78731;SHT31;68055;51.978;5.658;2023-12-20T07:39:39;10.3;69.3
78731;SHT31;68055;51.978;5.658;2023-12-20T07:42:08;10.3;69.7
78731;SHT31;68055;51.978;5.658;2023-12-20T07:44:37;10.3;70.0
78731;SHT31;68055;51.978;5.658;2023-12-20T07:47:06;10.3;69.7
78731;SHT31;68055;51.978;5.658;2023-12-20T07:49:34;10.3;69.8
78731;SHT31;68055;51.978;5.658;2023-12-20T07:52:03;10.3;70.1
78731;SHT31;68055;51.978;5.658;2023-12-20T07:54:32;10.3;69.7
78731;SHT31;68055;51.978;5.658;2023-12-20T07:57:02;10.3;70.0
78731;SHT31;68055;51.978;5.658;2023-12-20T07:59:31;10.3;69.8
78731;SHT31;68055;51.978;5.658;2023-12-20T08:02:00;10.3;69.8
78731;SHT31;68055;51.978;5.658;2023-12-20T08:04:28;10.3;69.8
78731;SHT31;68055;51.978;5.658;2023-12-20T08:06:59;10.4;69.7
78731;SHT31;68055;51.978;5.658;2023-12-20T08:09:28;10.4;69.7
78731;SHT31;68055;51.978;5.658;2023-12-20T08:11:58;10.4;69.8
78731;SHT31;68055;51.978;5.658;2023-12-20T08:14:27;10.4;69.5
78731;SHT31;68055;51.978;5.658;2023-12-20T08:16:55;10.4;69.6
78731;SHT31;68055;51.978;5.658;2023-12-20T08:19:24;10.4;69.3
78731;SHT31;68055;51.978;5.658;2023-12-20T08:21:52;10.4;69.4
78731;SHT31;68055;51.978;5.658;2023-12-20T08:24:21;10.5;69.4
78731;SHT31;68055;51.978;5.658;2023-12-20T08:26:49;10.5;69.4
78731;SHT31;68055;51.978;5.658;2023-12-20T08:29:18;10.5;69.1
78731;SHT31;68055;51.978;5.658;2023-12-20T08:31:51;10.5;69.5
78731;SHT31;68055;51.978;5.658;2023-12-20T08:34:20;10.5;69.5
78731;SHT31;68055;51.978;5.658;2023-12-20T08:36:50;10.5;69.3
78731;SHT31;68055;51.978;5.658;2023-12-20T08:39:19;10.5;69.3
78731;SHT31;68055;51.978;5.658;2023-12-20T08:41:48;10.6;69.2
78731;SHT31;68055;51.978;5.658;2023-12-20T08:44:16;10.6;69.2
78731;SHT31;68055;51.978;5.658;2023-12-20T08:46:45;10.6;69.2
78731;SHT31;68055;51.978;5.658;2023-12-20T08:49:15;10.6;69.1
78731;SHT31;68055;51.978;5.658;2023-12-20T08:51:43;10.6;69.5
78731;SHT31;68055;51.978;5.658;2023-12-20T08:54:12;10.6;69.4
78731;SHT31;68055;51.978;5.658;2023-12-20T08:56:40;10.6;69.5
78731;SHT31;68055;51.978;5.658;2023-12-20T08:59:09;10.6;69.2
78731;SHT31;68055;51.978;5.658;2023-12-20T09:01:38;10.6;69.3
78731;SHT31;68055;51.978;5.658;2023-12-20T09:04:07;10.6;69.5
78731;SHT31;68055;51.978;5.658;2023-12-20T09:06:35;10.6;69.5
78731;SHT31;68055;51.978;5.658;2023-12-20T09:09:04;10.6;69.6
78731;SHT31;68055;51.978;5.658;2023-12-20T09:11:35;10.6;69.9
78731;SHT31;68055;51.978;5.658;2023-12-20T09:14:04;10.6;70.1
78731;SHT31;68055;51.978;5.658;2023-12-20T09:16:32;10.6;70.4
78731;SHT31;68055;51.978;5.658;2023-12-20T09:19:01;10.5;70.7
78731;SHT31;68055;51.978;5.658;2023-12-20T09:21:30;10.5;70.9
78731;SHT31;68055;51.978;5.658;2023-12-20T09:23:58;10.5;71.0
78731;SHT31;68055;51.978;5.658;2023-12-20T09:26:27;10.5;71.3
78731;SHT31;68055;51.978;5.658;2023-12-20T09:28:55;10.4;71.5
78731;SHT31;68055;51.978;5.658;2023-12-20T09:31:24;10.4;71.7
78731;SHT31;68055;51.978;5.658;2023-12-20T09:33:53;10.4;71.8
78731;SHT31;68055;51.978;5.658;2023-12-20T09:36:23;10.4;72.0
78731;SHT31;68055;51.978;5.658;2023-12-20T09:38:52;10.3;72.2
78731;SHT31;68055;51.978;5.658;2023-12-20T09:41:20;10.3;72.4
78731;SHT31;68055;51.978;5.658;2023-12-20T09:43:53;10.3;72.6
78731;SHT31;68055;51.978;5.658;2023-12-20T09:46:28;10.3;72.5
78731;SHT31;68055;51.978;5.658;2023-12-20T09:48:59;10.3;72.6
78731;SHT31;68055;51.978;5.658;2023-12-20T09:51:29;10.3;72.6
78731;SHT31;68055;51.978;5.658;2023-12-20T09:53:59;10.4;72.5
78731;SHT31;68055;51.978;5.658;2023-12-20T09:56:31;10.4;72.3
78731;SHT31;68055;51.978;5.658;2023-12-20T09:59:02;10.4;72.4
78731;SHT31;68055;51.978;5.658;2023-12-20T10:01:31;10.4;72.3
78731;SHT31;68055;51.978;5.658;2023-12-20T10:04:05;10.5;72.3
78731;SHT31;68055;51.978;5.658;2023-12-20T10:06:35;10.5;72.0
78731;SHT31;68055;51.978;5.658;2023-12-20T10:09:04;10.5;72.0
78731;SHT31;68055;51.978;5.658;2023-12-20T10:11:32;10.5;71.8
78731;SHT31;68055;51.978;5.658;2023-12-20T10:14:04;10.6;71.7
78731;SHT31;68055;51.978;5.658;2023-12-20T10:16:33;10.6;71.5
78731;SHT31;68055;51.978;5.658;2023-12-20T10:19:02;10.6;71.7
78731;SHT31;68055;51.978;5.658;2023-12-20T10:21:30;10.6;71.6
78731;SHT31;68055;51.978;5.658;2023-12-20T10:24:00;10.7;71.7
78731;SHT31;68055;51.978;5.658;2023-12-20T10:26:29;10.7;71.8
78731;SHT31;68055;51.978;5.658;2023-12-20T10:29:00;10.7;71.8
78731;SHT31;68055;51.978;5.658;2023-12-20T10:31:31;10.7;71.8
78731;SHT31;68055;51.978;5.658;2023-12-20T10:34:02;10.8;71.9
78731;SHT31;68055;51.978;5.658;2023-12-20T10:36:32;10.8;71.6
78731;SHT31;68055;51.978;5.658;2023-12-20T10:39:02;10.8;71.5
78731;SHT31;68055;51.978;5.658;2023-12-20T10:41:33;10.9;71.4
78731;SHT31;68055;51.978;5.658;2023-12-20T10:44:07;10.9;71.3
78731;SHT31;68055;51.978;5.658;2023-12-20T10:46:37;10.9;71.3
78731;SHT31;68055;51.978;5.658;2023-12-20T10:49:08;11.0;71.2
78731;SHT31;68055;51.978;5.658;2023-12-20T10:51:38;11.0;71.4
78731;SHT31;68055;51.978;5.658;2023-12-20T10:54:07;11.1;71.2
78731;SHT31;68055;51.978;5.658;2023-12-20T10:56:38;11.1;71.0
78731;SHT31;68055;51.978;5.658;2023-12-20T10:59:12;11.1;70.6
78731;SHT31;68055;51.978;5.658;2023-12-20T11:01:43;11.2;70.8
78731;SHT31;68055;51.978;5.658;2023-12-20T11:04:20;11.2;70.5
78731;SHT31;68055;51.978;5.658;2023-12-20T11:06:54;11.2;70.5
78731;SHT31;68055;51.978;5.658;2023-12-20T11:09:31;11.3;70.2
78731;SHT31;68055;51.978;5.658;2023-12-20T11:12:12;11.3;69.8
78731;SHT31;68055;51.978;5.658;2023-12-20T11:14:47;11.4;69.5
78731;SHT31;68055;51.978;5.658;2023-12-20T11:17:16;11.4;69.6
78731;SHT31;68055;51.978;5.658;2023-12-20T11:20:06;11.4;69.6
78731;SHT31;68055;51.978;5.658;2023-12-20T11:22:39;11.4;69.4
78731;SHT31;68055;51.978;5.658;2023-12-20T11:25:10;11.5;69.1
78731;SHT31;68055;51.978;5.658;2023-12-20T11:27:41;11.5;68.8
78731;SHT31;68055;51.978;5.658;2023-12-20T11:30:14;11.5;68.7
78731;SHT31;68055;51.978;5.658;2023-12-20T11:32:45;11.5;68.8
78731;SHT31;68055;51.978;5.658;2023-12-20T11:35:20;11.6;68.7
78731;SHT31;68055;51.978;5.658;2023-12-20T11:37:51;11.6;68.7
78731;SHT31;68055;51.978;5.658;2023-12-20T11:40:19;11.6;68.6
78731;SHT31;68055;51.978;5.658;2023-12-20T11:42:51;11.6;68.1
78731;SHT31;68055;51.978;5.658;2023-12-20T11:45:23;11.6;68.2
78731;SHT31;68055;51.978;5.658;2023-12-20T11:47:53;11.7;67.7
78731;SHT31;68055;51.978;5.658;2023-12-20T11:50:24;11.7;68.6
78731;SHT31;68055;51.978;5.658;2023-12-20T11:52:53;11.7;67.3
78731;SHT31;68055;51.978;5.658;2023-12-20T11:55:23;11.8;67.1
78731;SHT31;68055;51.978;5.658;2023-12-20T11:57:52;11.8;67.3
78731;SHT31;68055;51.978;5.658;2023-12-20T12:00:21;11.8;67.3
78731;SHT31;68055;51.978;5.658;2023-12-20T12:02:59;11.8;66.2
78731;SHT31;68055;51.978;5.658;2023-12-20T12:05:30;11.9;66.9
78731;SHT31;68055;51.978;5.658;2023-12-20T12:07:59;11.9;67.2
78731;SHT31;68055;51.978;5.658;2023-12-20T12:10:28;11.9;67.3
78731;SHT31;68055;51.978;5.658;2023-12-20T12:12:57;12.0;67.3
78731;SHT31;68055;51.978;5.658;2023-12-20T12:15:27;12.0;67.2
78731;SHT31;68055;51.978;5.658;2023-12-20T12:17:56;12.1;67.2
78731;SHT31;68055;51.978;5.658;2023-12-20T12:20:25;12.1;67.2
78731;SHT31;68055;51.978;5.658;2023-12-20T12:23:02;12.1;67.0
78731;SHT31;68055;51.978;5.658;2023-12-20T12:25:32;12.2;67.1
78731;SHT31;68055;51.978;5.658;2023-12-20T12:28:01;12.2;67.1
78731;SHT31;68055;51.978;5.658;2023-12-20T12:30:30;12.2;66.9
78731;SHT31;68055;51.978;5.658;2023-12-20T12:32:58;12.2;66.8
78731;SHT31;68055;51.978;5.658;2023-12-20T12:35:29;12.3;66.6
78731;SHT31;68055;51.978;5.658;2023-12-20T12:37:59;12.3;66.2
78731;SHT31;68055;51.978;5.658;2023-12-20T12:40:29;12.3;66.6
78731;SHT31;68055;51.978;5.658;2023-12-20T12:42:58;12.3;66.9
78731;SHT31;68055;51.978;5.658;2023-12-20T12:45:27;12.3;67.1
78731;SHT31;68055;51.978;5.658;2023-12-20T12:47:56;12.3;67.1
78731;SHT31;68055;51.978;5.658;2023-12-20T12:50:24;12.2;67.0
78731;SHT31;68055;51.978;5.658;2023-12-20T12:52:55;12.2;67.0
78731;SHT31;68055;51.978;5.658;2023-12-20T12:55:24;12.2;67.2
78731;SHT31;68055;51.978;5.658;2023-12-20T12:57:52;12.2;67.4
78731;SHT31;68055;51.978;5.658;2023-12-20T13:00:21;12.2;67.1
78731;SHT31;68055;51.978;5.658;2023-12-20T13:02:51;12.2;66.5
78731;SHT31;68055;51.978;5.658;2023-12-20T13:05:19;12.2;66.9
78731;SHT31;68055;51.978;5.658;2023-12-20T13:07:48;12.2;66.8
78731;SHT31;68055;51.978;5.658;2023-12-20T13:10:17;12.3;66.9
78731;SHT31;68055;51.978;5.658;2023-12-20T13:12:47;12.3;66.7
78731;SHT31;68055;51.978;5.658;2023-12-20T13:15:16;12.3;67.0
78731;SHT31;68055;51.978;5.658;2023-12-20T13:17:45;12.3;66.6
78731;SHT31;68055;51.978;5.658;2023-12-20T13:20:14;12.3;66.6
78731;SHT31;68055;51.978;5.658;2023-12-20T13:22:42;12.3;66.6
78731;SHT31;68055;51.978;5.658;2023-12-20T13:25:11;12.4;66.5
78731;SHT31;68055;51.978;5.658;2023-12-20T13:27:41;12.4;66.3
78731;SHT31;68055;51.978;5.658;2023-12-20T13:30:10;12.4;66.2
78731;SHT31;68055;51.978;5.658;2023-12-20T13:32:39;12.4;65.9
78731;SHT31;68055;51.978;5.658;2023-12-20T13:35:09;12.4;66.1
78731;SHT31;68055;51.978;5.658;2023-12-20T13:37:40;12.4;66.3
78731;SHT31;68055;51.978;5.658;2023-12-20T13:40:11;12.4;66.3
78731;SHT31;68055;51.978;5.658;2023-12-20T13:42:41;12.4;65.9
78731;SHT31;68055;51.978;5.658;2023-12-20T13:45:09;12.4;65.7
78731;SHT31;68055;51.978;5.658;2023-12-20T13:47:38;12.4;65.6
78731;SHT31;68055;51.978;5.658;2023-12-20T13:50:07;12.4;65.6
78731;SHT31;68055;51.978;5.658;2023-12-20T13:52:36;12.4;65.7
78731;SHT31;68055;51.978;5.658;2023-12-20T13:55:07;12.4;65.8
78731;SHT31;68055;51.978;5.658;2023-12-20T13:57:37;12.4;65.8
78731;SHT31;68055;51.978;5.658;2023-12-20T14:00:07;12.4;65.4
78731;SHT31;68055;51.978;5.658;2023-12-20T14:02:41;12.4;65.4
78731;SHT31;68055;51.978;5.658;2023-12-20T14:05:10;12.4;65.2
78731;SHT31;68055;51.978;5.658;2023-12-20T14:07:40;12.4;65.1
78731;SHT31;68055;51.978;5.658;2023-12-20T14:10:11;12.4;65.2
78731;SHT31;68055;51.978;5.658;2023-12-20T14:12:40;12.4;64.9
78731;SHT31;68055;51.978;5.658;2023-12-20T14:15:11;12.4;65.0
78731;SHT31;68055;51.978;5.658;2023-12-20T14:17:41;12.4;64.9
78731;SHT31;68055;51.978;5.658;2023-12-20T14:20:10;12.4;65.2
78731;SHT31;68055;51.978;5.658;2023-12-20T14:22:40;12.4;64.9
78731;SHT31;68055;51.978;5.658;2023-12-20T14:25:11;12.4;64.8
78731;SHT31;68055;51.978;5.658;2023-12-20T14:27:41;12.4;64.8
78731;SHT31;68055;51.978;5.658;2023-12-20T14:30:11;12.4;65.4
78731;SHT31;68055;51.978;5.658;2023-12-20T14:32:41;12.4;65.4
78731;SHT31;68055;51.978;5.658;2023-12-20T14:35:10;12.4;65.4
78731;SHT31;68055;51.978;5.658;2023-12-20T14:37:39;12.4;65.2
78731;SHT31;68055;51.978;5.658;2023-12-20T14:40:08;12.4;65.3
78731;SHT31;68055;51.978;5.658;2023-12-20T14:42:41;12.4;65.1
78731;SHT31;68055;51.978;5.658;2023-12-20T14:45:10;12.4;65.2
78731;SHT31;68055;51.978;5.658;2023-12-20T14:47:40;12.5;65.2
78731;SHT31;68055;51.978;5.658;2023-12-20T14:50:09;12.5;65.0
78731;SHT31;68055;51.978;5.658;2023-12-20T14:52:44;12.5;65.0
78731;SHT31;68055;51.978;5.658;2023-12-20T14:55:13;12.5;65.0
78731;SHT31;68055;51.978;5.658;2023-12-20T14:57:46;12.5;64.9
78731;SHT31;68055;51.978;5.658;2023-12-20T15:00:16;12.5;65.0
78731;SHT31;68055;51.978;5.658;2023-12-20T15:02:45;12.5;65.0
78731;SHT31;68055;51.978;5.658;2023-12-20T15:05:14;12.4;65.1
78731;SHT31;68055;51.978;5.658;2023-12-20T15:07:44;12.4;64.9
78731;SHT31;68055;51.978;5.658;2023-12-20T15:10:15;12.4;65.4
78731;SHT31;68055;51.978;5.658;2023-12-20T15:12:47;12.4;65.4
78731;SHT31;68055;51.978;5.658;2023-12-20T15:15:15;12.4;65.6
78731;SHT31;68055;51.978;5.658;2023-12-20T15:17:44;12.4;65.4
78731;SHT31;68055;51.978;5.658;2023-12-20T15:20:13;12.4;65.5
78731;SHT31;68055;51.978;5.658;2023-12-20T15:22:42;12.4;65.7
78731;SHT31;68055;51.978;5.658;2023-12-20T15:25:12;12.4;65.5
78731;SHT31;68055;51.978;5.658;2023-12-20T15:27:45;12.3;65.9
78731;SHT31;68055;51.978;5.658;2023-12-20T15:30:18;12.3;66.3
78731;SHT31;68055;51.978;5.658;2023-12-20T15:32:46;12.3;66.3
78731;SHT31;68055;51.978;5.658;2023-12-20T15:35:15;12.3;66.2
78731;SHT31;68055;51.978;5.658;2023-12-20T15:37:44;12.3;66.3
78731;SHT31;68055;51.978;5.658;2023-12-20T15:40:12;12.2;66.6
78731;SHT31;68055;51.978;5.658;2023-12-20T15:42:41;12.2;67.0
78731;SHT31;68055;51.978;5.658;2023-12-20T15:45:10;12.2;67.3
78731;SHT31;68055;51.978;5.658;2023-12-20T15:47:39;12.1;67.6
78731;SHT31;68055;51.978;5.658;2023-12-20T15:50:08;12.1;67.6
78731;SHT31;68055;51.978;5.658;2023-12-20T15:52:36;12.0;68.0
78731;SHT31;68055;51.978;5.658;2023-12-20T15:55:06;12.0;68.4
78731;SHT31;68055;51.978;5.658;2023-12-20T15:57:36;12.0;68.5
78731;SHT31;68055;51.978;5.658;2023-12-20T16:00:06;11.9;68.7
78731;SHT31;68055;51.978;5.658;2023-12-20T16:02:35;11.9;69.0
78731;SHT31;68055;51.978;5.658;2023-12-20T16:05:05;11.8;69.2
78731;SHT31;68055;51.978;5.658;2023-12-20T16:07:34;11.8;69.4
78731;SHT31;68055;51.978;5.658;2023-12-20T16:10:02;11.7;69.9
78731;SHT31;68055;51.978;5.658;2023-12-20T16:12:31;11.7;70.3
78731;SHT31;68055;51.978;5.658;2023-12-20T16:15:00;11.6;70.6
78731;SHT31;68055;51.978;5.658;2023-12-20T16:17:29;11.5;70.9
78731;SHT31;68055;51.978;5.658;2023-12-20T16:19:59;11.5;71.1